Airport Name : Sheremetyevo

Other Name : Sheremetyevo

ICAO : UUEE

IATA : SVO

FAA :

Latitude : 55.972642

Longitude : 37.414589

Country : Russia

Local Date and Time : 4/21/2018 6:56:00 AM

 

TAF (Terminal Aerodrome Forecast)

TAF UUEE 210159Z 2103/2203 23006MPS 9999 BKN015 TX17/2110Z TN06/2103Z TEMPO 2103/2106 26008G13MPS -SHRA FEW007 SCT015CB BECMG 2106/2108 26011G17MPS TEMPO 2110/2117 27014G20MPS 3100 -TSRA BKN015CB FM211700 30010G15MPS 6000 BKN015 TEMPO 2117/2203 30014G20MPS 3100 -SHRA BKN015CB

 

METAR (METeorological Aerodrome Report)

UUEE 210330Z 21004MPS CAVOK 09/04 Q1002 R24R/190057 R24L/190057 NOSIG

UUEE 210300Z 23005MPS 9999 -RA NSC 09/04 Q1002 R24L/CLRD62 NOSIG

UUEE 210230Z 24006MPS 9999 -RA NSC 09/03 Q1003 R24L/CLRD62 NOSIG

UUEE 210200Z 23006MPS CAVOK 09/02 Q1003 R24L/CLRD62 NOSIG

UUEE 210130Z 21006MPS CAVOK 10/02 Q1004 R24L/CLRD62 NOSIG

UUEE 210100Z 21006MPS CAVOK 09/02 Q1005 R24L/CLRD62 NOSIG

UUEE 210030Z 20005MPS CAVOK 09/02 Q1005 R24L/CLRD62 NOSIG

UUEE 210000Z 20004MPS CAVOK 09/02 Q1006 R24L/CLRD62 NOSIG